Time;durP1;ratioP1;P1;durP2;ratioP2;P2;SDS_P1;SDS_P2;PMS_P1;PMS_P2;Temp;Humidity;BMP_temperature;BMP_pressure;BME280_temperature;BME280_humidity;BME280_pressure;Samples;Min_cycle;Max_cycle;Signal;HPM_P1;HPM_P2
2023/05/29 00:00:13;;;;;;;4.93;2.53;;;;;;;15.31;60.05;99691.16;4286821;33;23926;-81
2023/05/29 00:02:39;;;;;;;5.35;2.15;;;;;;;15.35;60.04;99684.81;4286560;33;20435;-81
2023/05/29 00:05:05;;;;;;;7.37;2.83;;;;;;;15.39;60.03;99685.53;4287296;33;20130;-81
2023/05/29 00:07:31;;;;;;;5.93;2.70;;;;;;;15.30;60.03;99692.94;4288624;33;20120;-81
2023/05/29 00:09:56;;;;;;;5.07;2.45;;;;;;;15.28;60.04;99686.94;4275328;33;20115;-81
2023/05/29 00:12:22;;;;;;;4.60;2.35;;;;;;;15.34;60.04;99683.13;4286319;33;36891;-80
2023/05/29 00:14:48;;;;;;;5.45;2.72;;;;;;;15.42;60.04;99690.63;4287381;33;20644;-81
2023/05/29 00:17:15;;;;;;;5.97;2.30;;;;;;;15.53;60.04;99681.22;4274584;33;28661;-81
2023/05/29 00:19:40;;;;;;;6.30;2.53;;;;;;;15.60;60.05;99684.41;4287299;33;20159;-81
2023/05/29 00:22:06;;;;;;;6.03;2.90;;;;;;;15.64;60.05;99681.56;4275175;33;20108;-81
2023/05/29 00:24:32;;;;;;;5.37;2.80;;;;;;;15.40;60.04;99688.06;4275029;33;20130;-81
2023/05/29 00:26:57;;;;;;;5.60;2.22;;;;;;;15.60;60.05;99685.25;4287203;33;20159;-81
2023/05/29 00:29:23;;;;;;;8.15;2.70;;;;;;;15.60;60.05;99685.25;4274446;33;34385;-80
2023/05/29 00:31:48;;;;;;;5.47;2.50;;;;;;;15.60;60.05;99687.87;4287297;33;20164;-81
2023/05/29 00:34:13;;;;;;;5.68;2.30;;;;;;;15.70;60.05;99687.41;4274711;33;20147;-81
2023/05/29 00:36:39;;;;;;;5.18;2.08;;;;;;;15.48;60.05;99685.88;4274163;33;33629;-81
2023/05/29 00:39:05;;;;;;;4.82;2.55;;;;;;;15.64;60.06;99685.97;4286968;33;20081;-81
2023/05/29 00:41:30;;;;;;;4.10;2.50;;;;;;;15.80;60.06;99678.09;4287249;33;36076;-81
2023/05/29 00:43:55;;;;;;;4.93;2.60;;;;;;;15.69;60.05;99683.06;4286285;33;20407;-81
2023/05/29 00:46:21;;;;;;;4.72;2.55;;;;;;;15.44;60.04;99700.09;4288327;33;20277;-82
2023/05/29 00:48:46;;;;;;;4.10;2.42;;;;;;;15.36;60.04;99689.13;4285939;33;24100;-81
2023/05/29 00:51:12;;;;;;;7.95;2.62;;;;;;;15.57;60.05;99706.38;4268871;33;172228;-81
2023/05/29 00:53:38;;;;;;;4.97;2.22;;;;;;;15.68;60.05;99689.25;4286530;33;20109;-81
2023/05/29 00:56:04;;;;;;;4.90;2.83;;;;;;;15.41;60.04;99694.16;4274585;33;20156;-81
2023/05/29 00:58:30;;;;;;;9.68;2.40;;;;;;;15.23;60.04;99686.31;4274479;33;20089;-81
2023/05/29 01:00:55;;;;;;;5.40;2.67;;;;;;;15.44;60.04;99694.84;4274523;33;20470;-80
2023/05/29 01:03:22;;;;;;;5.07;2.45;;;;;;;15.22;60.03;99691.66;4286050;33;21943;-81
2023/05/29 01:05:48;;;;;;;5.80;2.55;;;;;;;15.40;60.04;99676.75;4286595;33;20104;-81
2023/05/29 01:08:13;;;;;;;4.97;2.92;;;;;;;15.74;60.06;99683.66;4287688;33;20492;-81
2023/05/29 01:10:38;;;;;;;5.78;2.80;;;;;;;15.63;60.06;99676.41;4285214;33;35820;-82
2023/05/29 01:13:07;;;;;;;6.53;2.80;;;;;;;15.48;60.05;99675.41;4286458;33;20242;-81
2023/05/29 01:15:43;;;;;;;6.22;2.80;;;;;;;15.20;60.03;99680.41;4276441;33;20108;-82
2023/05/29 01:18:51;;;;;;;7.68;2.53;;;;;;;15.42;60.04;99680.13;4288425;33;20093;-81
2023/05/29 01:21:26;;;;;;;5.78;2.53;;;;;;;15.57;60.05;99684.53;4262199;33;20143;-82
2023/05/29 01:24:27;;;;;;;4.97;2.35;;;;;;;15.50;60.05;99678.78;4288420;33;20101;-81
2023/05/29 01:27:03;;;;;;;9.05;2.95;;;;;;;15.63;60.06;99687.72;4288922;33;20133;-82
2023/05/29 01:29:32;;;;;;;4.45;2.22;;;;;;;15.50;60.04;99684.03;4288115;33;20510;-81
2023/05/29 01:31:58;;;;;;;4.90;2.80;;;;;;;15.40;60.04;99682.84;4288065;33;20119;-82
2023/05/29 01:34:23;;;;;;;6.03;2.75;;;;;;;15.18;60.03;99680.47;4276376;33;20130;-82
2023/05/29 01:36:49;;;;;;;6.03;2.67;;;;;;;15.11;60.03;99675.63;4288278;33;20164;-82
2023/05/29 01:39:14;;;;;;;6.57;2.50;;;;;;;15.13;60.02;99674.59;4287973;33;20104;-81
2023/05/29 01:41:40;;;;;;;4.32;2.40;;;;;;;15.42;60.04;99667.00;4288302;33;20104;-81
2023/05/29 01:44:08;;;;;;;5.72;2.10;;;;;;;15.17;60.03;99675.31;4276147;33;20506;-81
2023/05/29 01:46:35;;;;;;;8.40;3.28;;;;;;;15.18;60.03;99664.75;4288264;33;20171;-81
2023/05/29 01:49:00;;;;;;;4.55;2.40;;;;;;;15.07;60.02;99663.59;4263957;33;20125;-81
2023/05/29 01:51:25;;;;;;;6.60;2.75;;;;;;;15.13;60.03;99665.87;4287705;33;22729;-81
2023/05/29 01:53:51;;;;;;;8.10;3.33;;;;;;;15.12;60.02;99665.03;4263016;33;33735;-81
2023/05/29 01:56:16;;;;;;;7.35;2.85;;;;;;;14.99;60.01;99659.59;4276186;33;20109;-81
2023/05/29 01:58:42;;;;;;;5.65;2.45;;;;;;;14.86;60.00;99661.16;4276045;33;20136;-81
2023/05/29 02:01:07;;;;;;;5.37;2.85;;;;;;;14.95;60.02;99655.44;4276263;33;20152;-81
2023/05/29 02:03:33;;;;;;;5.22;2.62;;;;;;;14.88;60.01;99653.19;4287725;33;20159;-81
2023/05/29 02:05:59;;;;;;;8.20;2.97;;;;;;;14.88;60.01;99648.81;4288247;33;20104;-80
2023/05/29 02:08:24;;;;;;;5.65;2.83;;;;;;;14.93;60.01;99649.44;4287701;33;20370;-82
2023/05/29 02:10:50;;;;;;;5.62;2.65;;;;;;;14.86;60.02;99655.06;4288123;33;20184;-81
2023/05/29 02:13:15;;;;;;;5.80;2.62;;;;;;;14.91;60.01;99653.06;4274999;33;36608;-81
2023/05/29 02:15:41;;;;;;;6.05;3.05;;;;;;;14.90;60.01;99646.09;4275698;33;20439;-81
2023/05/29 02:18:11;;;;;;;7.57;2.92;;;;;;;14.85;60.00;99646.34;4287532;33;32699;-80
2023/05/29 02:20:37;;;;;;;7.85;3.20;;;;;;;14.79;60.01;99651.91;4276789;33;20080;-81
2023/05/29 02:23:02;;;;;;;8.65;3.17;;;;;;;14.77;60.00;99645.06;4289591;33;20167;-79
2023/05/29 02:25:28;;;;;;;7.70;2.83;;;;;;;14.81;60.01;99644.81;4287646;33;20140;-80
2023/05/29 02:27:53;;;;;;;6.87;3.33;;;;;;;14.89;60.01;99640.03;4275620;33;31433;-81
2023/05/29 02:30:18;;;;;;;9.07;3.05;;;;;;;14.71;60.01;99647.06;4287622;33;30493;-80
2023/05/29 02:32:44;;;;;;;4.57;2.58;;;;;;;14.68;60.00;99649.00;4288957;33;23399;-80
2023/05/29 02:35:09;;;;;;;8.32;3.10;;;;;;;14.71;60.01;99643.59;4289397;33;20135;-80
2023/05/29 02:37:35;;;;;;;4.70;2.78;;;;;;;14.53;59.99;99650.59;4289360;33;20149;-80
2023/05/29 02:40:00;;;;;;;5.12;2.30;;;;;;;14.57;59.99;99643.44;4276549;33;20123;-80
2023/05/29 02:42:26;;;;;;;7.78;2.90;;;;;;;14.59;60.00;99638.97;4276117;33;20380;-79
2023/05/29 02:44:51;;;;;;;6.68;3.42;;;;;;;14.66;60.00;99642.97;4275814;33;20175;-80
2023/05/29 02:47:17;;;;;;;11.10;4.37;;;;;;;14.59;59.99;99631.09;4289353;33;20109;-80
2023/05/29 02:49:42;;;;;;;5.70;3.12;;;;;;;14.57;60.00;99636.44;4276546;33;20101;-81
2023/05/29 02:52:08;;;;;;;7.05;2.85;;;;;;;14.37;59.98;99629.53;4276171;33;32124;-80
2023/05/29 02:54:34;;;;;;;8.15;2.87;;;;;;;14.63;60.00;99632.63;4289260;33;20135;-80
2023/05/29 02:56:59;;;;;;;8.50;2.92;;;;;;;14.55;60.00;99633.03;4277429;33;20109;-80
2023/05/29 02:59:25;;;;;;;5.85;2.92;;;;;;;14.58;59.99;99632.03;4289257;33;20140;-80
2023/05/29 03:01:51;;;;;;;8.10;3.30;;;;;;;14.37;59.98;99637.38;4289164;33;20402;-81
2023/05/29 03:04:17;;;;;;;5.82;3.00;;;;;;;14.42;59.98;99640.59;4289267;33;20519;-80
2023/05/29 03:06:42;;;;;;;6.37;2.65;;;;;;;14.67;60.00;99642.06;4290498;33;20089;-80
2023/05/29 03:09:08;;;;;;;7.18;3.40;;;;;;;14.51;59.99;99641.97;4288985;33;20216;-80
2023/05/29 03:11:35;;;;;;;5.30;3.20;;;;;;;14.49;59.99;99637.75;4289011;33;20163;-80
2023/05/29 03:14:01;;;;;;;9.48;3.28;;;;;;;14.39;59.99;99640.75;4277385;33;20158;-80
2023/05/29 03:16:29;;;;;;;6.78;3.00;;;;;;;14.42;59.98;99645.84;4289220;33;20371;-81
2023/05/29 03:18:54;;;;;;;5.57;3.00;;;;;;;14.51;59.99;99641.97;4289243;33;20096;-81
2023/05/29 03:21:21;;;;;;;7.90;3.80;;;;;;;14.89;60.01;99633.94;4289225;33;20428;-81
2023/05/29 03:23:46;;;;;;;8.88;3.12;;;;;;;14.96;60.01;99627.47;4277120;33;20180;-81
2023/05/29 03:26:12;;;;;;;9.50;3.47;;;;;;;14.81;60.00;99629.09;4290331;33;20397;-80
2023/05/29 03:28:38;;;;;;;8.70;3.55;;;;;;;14.68;59.99;99634.13;4277218;33;20112;-81
2023/05/29 03:31:03;;;;;;;7.10;3.17;;;;;;;14.79;60.01;99635.34;4290304;33;20887;-80
2023/05/29 03:33:29;;;;;;;8.23;4.05;;;;;;;14.86;60.00;99640.19;4290186;33;20092;-80
2023/05/29 03:35:56;;;;;;;6.30;3.10;;;;;;;14.94;60.00;99634.56;4287356;33;33915;-81
2023/05/29 03:38:21;;;;;;;8.48;2.85;;;;;;;14.95;60.01;99642.34;4289108;33;20445;-81
2023/05/29 03:40:46;;;;;;;6.22;2.78;;;;;;;15.11;60.02;99644.16;4289622;33;25635;-81
2023/05/29 03:43:12;;;;;;;6.12;3.35;;;;;;;14.96;60.01;99645.81;4289872;33;20172;-79
2023/05/29 03:45:37;;;;;;;7.60;3.50;;;;;;;15.11;60.03;99654.62;4276507;33;22448;-81
2023/05/29 03:48:02;;;;;;;6.97;3.45;;;;;;;15.19;60.02;99650.72;4288499;33;23314;-81
2023/05/29 03:50:28;;;;;;;5.85;2.85;;;;;;;15.30;60.03;99653.59;4272933;33;20160;-80
2023/05/29 03:52:53;;;;;;;6.87;3.15;;;;;;;15.40;60.03;99663.63;4274962;33;32881;-80
2023/05/29 03:55:19;;;;;;;6.25;3.20;;;;;;;15.49;60.04;99663.97;4273448;33;31742;-81
2023/05/29 03:57:44;;;;;;;6.90;2.85;;;;;;;15.52;60.04;99668.19;4275648;33;20227;-80
2023/05/29 04:00:11;;;;;;;6.70;3.33;;;;;;;15.53;60.04;99669.91;4274169;33;20177;-80
2023/05/29 04:02:39;;;;;;;8.55;3.75;;;;;;;15.54;60.04;99669.81;4262583;33;20521;-80
2023/05/29 04:05:06;;;;;;;7.43;3.47;;;;;;;15.81;60.06;99662.25;4274404;33;20169;-80
2023/05/29 04:07:32;;;;;;;4.50;3.00;;;;;;;15.93;60.05;99655.50;4274507;33;20081;-80
2023/05/29 04:09:57;;;;;;;7.78;3.12;;;;;;;15.83;60.06;99651.66;4275322;33;20092;-80
2023/05/29 04:12:23;;;;;;;6.05;3.40;;;;;;;15.90;60.06;99653.03;4274347;33;20183;-80
2023/05/29 04:14:48;;;;;;;7.43;3.60;;;;;;;15.94;60.07;99660.66;4273790;33;21615;-80
2023/05/29 04:17:13;;;;;;;8.32;3.72;;;;;;;16.13;60.07;99655.22;4274659;33;34769;-81
2023/05/29 04:19:39;;;;;;;7.80;3.30;;;;;;;16.25;60.08;99654.53;4274318;33;20548;-81
2023/05/29 04:22:04;;;;;;;7.28;3.60;;;;;;;16.52;60.09;99656.50;4274127;33;20470;-81
2023/05/29 04:24:31;;;;;;;7.03;3.25;;;;;;;16.81;60.11;99655.69;4274157;33;20115;-81
2023/05/29 04:26:57;;;;;;;5.95;2.75;;;;;;;16.75;60.10;99648.16;4275438;33;20482;-81
2023/05/29 04:29:22;;;;;;;7.18;3.55;;;;;;;17.00;60.11;99657.22;4273885;33;20127;-82
2023/05/29 04:31:48;;;;;;;7.87;3.75;;;;;;;17.12;60.12;99651.22;4275332;33;20112;-80
2023/05/29 04:34:16;;;;;;;7.55;3.35;;;;;;;17.34;60.14;99656.03;4273667;33;20141;-80
2023/05/29 04:36:43;;;;;;;6.35;3.30;;;;;;;17.47;60.15;99655.16;4274051;33;20136;-80
2023/05/29 04:39:09;;;;;;;7.97;4.15;;;;;;;17.64;60.15;99653.28;4274080;33;20229;-80
2023/05/29 04:41:35;;;;;;;5.85;3.40;;;;;;;17.70;60.16;99656.41;4261745;33;20455;-80
2023/05/29 04:44:01;;;;;;;6.30;3.60;;;;;;;17.89;60.17;99652.63;4275200;33;20123;-80
2023/05/29 04:46:26;;;;;;;5.65;3.47;;;;;;;18.09;60.19;99654.81;4274015;33;20148;-80
2023/05/29 04:48:54;;;;;;;7.45;3.67;;;;;;;18.34;60.19;99656.72;4275431;33;20479;-80
2023/05/29 04:51:21;;;;;;;11.18;3.53;;;;;;;18.64;60.21;99659.97;4284380;33;20179;-80
2023/05/29 04:53:47;;;;;;;7.35;3.40;;;;;;;18.59;60.20;99658.56;4289931;33;20160;-80
2023/05/29 04:56:13;;;;;;;5.45;3.28;;;;;;;18.75;60.21;99658.44;4290114;33;20105;-80
2023/05/29 04:58:38;;;;;;;6.85;3.60;;;;;;;18.99;60.22;99659.41;4290197;33;20092;-80
2023/05/29 05:01:04;;;;;;;8.65;3.33;;;;;;;19.08;60.23;99655.28;4290557;33;30936;-81
2023/05/29 05:03:33;;;;;;;7.03;3.60;;;;;;;19.22;60.24;99649.94;4278091;33;20143;-81
2023/05/29 05:05:59;;;;;;;8.57;4.30;;;;;;;19.27;60.24;99651.28;4278508;33;20114;-81
2023/05/29 05:08:25;;;;;;;8.38;3.58;;;;;;;19.37;60.24;99655.91;4290031;33;20482;-81
2023/05/29 05:10:50;;;;;;;5.37;3.60;;;;;;;19.56;60.26;99662.47;4289573;33;20231;-80
2023/05/29 05:13:15;;;;;;;7.43;3.78;;;;;;;19.75;60.26;99662.03;4290942;33;20140;-80
2023/05/29 05:15:41;;;;;;;9.73;3.45;;;;;;;19.85;60.28;99659.56;4289151;33;29677;-80
2023/05/29 05:18:06;;;;;;;8.98;3.75;;;;;;;20.08;60.27;99655.25;4289664;33;20152;-80
2023/05/29 05:20:32;;;;;;;5.15;2.85;;;;;;;20.18;60.29;99657.13;4265423;33;21791;-81
2023/05/29 05:22:59;;;;;;;6.25;3.60;;;;;;;20.33;60.29;99660.44;4289308;33;20161;-81
2023/05/29 05:25:25;;;;;;;7.85;3.97;;;;;;;20.46;60.31;99658.63;4277581;33;20092;-81
2023/05/29 05:27:50;;;;;;;9.13;3.50;;;;;;;20.66;60.31;99653.66;4277664;33;20269;-81
2023/05/29 05:30:16;;;;;;;5.93;3.35;;;;;;;20.86;60.33;99662.72;4289637;33;20134;-81
2023/05/29 05:32:41;;;;;;;7.18;3.78;;;;;;;21.01;60.34;99661.53;4289636;33;20189;-82
2023/05/29 05:35:08;;;;;;;8.50;3.65;;;;;;;21.23;60.34;99653.62;4276598;33;35108;-81
2023/05/29 05:37:33;;;;;;;5.00;3.08;;;;;;;21.24;60.33;99663.28;4289579;33;20580;-81
2023/05/29 05:40:00;;;;;;;7.22;3.45;;;;;;;21.46;60.35;99651.88;4288928;33;20128;-80
2023/05/29 05:42:25;;;;;;;7.47;3.75;;;;;;;21.59;60.36;99655.25;4290421;33;20115;-80
2023/05/29 05:44:51;;;;;;;7.05;3.17;;;;;;;21.82;60.37;99656.09;4288633;33;35785;-81
2023/05/29 05:47:16;;;;;;;4.80;3.20;;;;;;;21.90;60.38;99658.09;4277054;33;21715;-81
2023/05/29 05:49:43;;;;;;;5.50;2.75;;;;;;;22.02;60.38;99654.50;4288654;33;31932;-82
2023/05/29 05:52:08;;;;;;;7.68;3.20;;;;;;;22.19;60.39;99656.63;4289550;33;20092;-81
2023/05/29 05:54:34;;;;;;;9.38;3.90;;;;;;;22.49;60.42;99652.44;4290516;33;20115;-81
2023/05/29 05:57:00;;;;;;;6.68;3.17;;;;;;;22.47;60.41;99646.38;4290555;33;20209;-81
2023/05/29 05:59:25;;;;;;;8.98;3.00;;;;;;;22.73;60.43;99649.56;4289015;33;20584;-81
2023/05/29 06:01:51;;;;;;;6.68;3.72;;;;;;;22.85;60.43;99649.38;4289573;33;20113;-80
2023/05/29 06:04:17;;;;;;;5.95;3.35;;;;;;;22.96;60.44;99651.13;4290504;33;20105;-81
2023/05/29 06:06:42;;;;;;;5.95;3.47;;;;;;;23.20;60.44;99658.81;4289515;33;20123;-82
2023/05/29 06:09:09;;;;;;;7.00;3.00;;;;;;;23.45;60.46;99657.56;4288743;33;20101;-80
2023/05/29 06:11:34;;;;;;;9.00;3.28;;;;;;;23.48;60.46;99655.47;4290785;33;20120;-80
2023/05/29 06:14:00;;;;;;;6.68;3.42;;;;;;;23.50;60.47;99661.47;4289996;33;20081;-79
2023/05/29 06:16:25;;;;;;;9.00;3.67;;;;;;;23.65;60.46;99663.78;4277042;33;20411;-80
2023/05/29 06:18:50;;;;;;;7.45;3.15;;;;;;;23.58;60.47;99667.00;4289752;33;20151;-80
2023/05/29 06:21:16;;;;;;;9.13;3.15;;;;;;;23.61;60.47;99675.66;4290308;33;20112;-81
2023/05/29 06:23:41;;;;;;;5.95;3.33;;;;;;;23.74;60.48;99670.97;4289226;33;20093;-81
2023/05/29 06:26:07;;;;;;;7.18;3.10;;;;;;;23.85;60.48;99681.50;4276628;33;33352;-81
2023/05/29 06:28:32;;;;;;;6.35;3.20;;;;;;;24.01;60.49;99675.66;4277395;33;20126;-81
2023/05/29 06:30:58;;;;;;;8.13;3.37;;;;;;;24.00;60.49;99664.19;4288509;33;33609;-81
2023/05/29 06:33:24;;;;;;;6.03;3.37;;;;;;;24.08;60.49;99672.31;4290511;33;20188;-81
2023/05/29 06:35:49;;;;;;;7.00;3.50;;;;;;;24.17;60.49;99676.81;4290221;33;20164;-80
2023/05/29 06:38:15;;;;;;;7.18;3.47;;;;;;;24.38;60.51;99673.25;4289004;33;20160;-80
2023/05/29 06:40:40;;;;;;;6.65;3.92;;;;;;;24.55;60.51;99675.19;4288988;33;20148;-81
2023/05/29 06:43:05;;;;;;;4.90;3.33;;;;;;;24.83;60.53;99672.66;4289950;33;20653;-81
2023/05/29 06:45:31;;;;;;;5.00;2.78;;;;;;;24.89;60.53;99667.63;4289225;33;20148;-80
2023/05/29 06:47:56;;;;;;;6.32;3.37;;;;;;;24.92;60.54;99674.50;4288819;33;20096;-81
2023/05/29 06:50:22;;;;;;;8.88;3.00;;;;;;;24.94;60.53;99680.50;4288170;33;35696;-81
2023/05/29 06:52:47;;;;;;;8.23;3.22;;;;;;;25.05;60.54;99678.53;4277101;33;20092;-81
2023/05/29 06:55:13;;;;;;;5.25;3.17;;;;;;;25.20;60.55;99676.28;4288685;33;21179;-81
2023/05/29 06:57:38;;;;;;;9.43;3.10;;;;;;;25.25;60.55;99679.34;4277147;33;20096;-79
2023/05/29 07:00:06;;;;;;;6.97;3.70;;;;;;;25.33;60.55;99678.66;4288987;33;20404;-79
2023/05/29 07:02:31;;;;;;;10.40;2.78;;;;;;;25.50;60.56;99679.69;4289302;33;20122;-79
2023/05/29 07:04:57;;;;;;;6.93;3.08;;;;;;;25.62;60.58;99670.53;4277009;33;20104;-82
2023/05/29 07:07:22;;;;;;;7.82;3.50;;;;;;;25.92;60.58;99680.09;4289494;33;34551;-81
2023/05/29 07:09:47;;;;;;;6.62;3.20;;;;;;;26.15;60.59;99670.69;4288704;33;20493;-82
2023/05/29 07:12:13;;;;;;;6.20;3.53;;;;;;;26.24;60.61;99675.13;4288822;33;20176;-82
2023/05/29 07:14:38;;;;;;;7.12;2.85;;;;;;;26.12;60.60;99675.50;4289830;33;20404;-82
2023/05/29 07:17:05;;;;;;;7.07;3.85;;;;;;;26.17;60.60;99674.03;4289116;33;20152;-81
2023/05/29 07:19:32;;;;;;;4.82;3.20;;;;;;;26.22;60.60;99676.25;4290353;33;20114;-81
2023/05/29 07:21:57;;;;;;;9.25;3.40;;;;;;;26.33;60.61;99673.37;4290201;33;20128;-81
2023/05/29 07:24:23;;;;;;;9.00;4.15;;;;;;;26.44;60.62;99681.19;4290094;33;20117;-82
2023/05/29 07:26:48;;;;;;;9.35;3.62;;;;;;;26.41;60.62;99686.00;4288901;33;20473;-81
2023/05/29 07:29:14;;;;;;;9.30;3.40;;;;;;;26.31;60.62;99689.56;4290241;33;32348;-81
2023/05/29 07:31:40;;;;;;;10.00;4.10;;;;;;;26.45;60.62;99688.19;4277149;33;20096;-81
2023/05/29 07:34:06;;;;;;;4.60;3.20;;;;;;;26.42;60.61;99688.50;4289790;33;20267;-80
2023/05/29 07:36:32;;;;;;;8.43;4.25;;;;;;;26.51;60.62;99692.97;4288576;33;20135;-80
2023/05/29 07:38:58;;;;;;;10.00;3.67;;;;;;;26.61;60.63;99691.03;4288313;33;20116;-81
2023/05/29 07:41:23;;;;;;;5.68;3.40;;;;;;;26.58;60.62;99696.69;4288530;33;20089;-79
2023/05/29 07:43:51;;;;;;;6.85;3.55;;;;;;;26.75;60.63;99702.19;4288340;33;20104;-80
2023/05/29 07:46:17;;;;;;;6.80;3.35;;;;;;;26.72;60.64;99708.66;4288867;33;20431;-79
2023/05/29 07:48:43;;;;;;;7.97;3.47;;;;;;;26.60;60.62;99724.06;4276952;33;20458;-80
2023/05/29 07:51:10;;;;;;;7.75;3.70;;;;;;;26.57;60.63;99718.19;4287866;33;28196;-80
2023/05/29 07:53:35;;;;;;;6.15;3.17;;;;;;;26.80;60.64;99721.25;4288564;33;20543;-81
2023/05/29 07:56:01;;;;;;;7.60;3.65;;;;;;;26.82;60.64;99719.25;4288554;33;20108;-81
2023/05/29 07:58:27;;;;;;;8.40;3.90;;;;;;;27.13;60.66;99717.88;4288528;33;20367;-81
2023/05/29 08:00:52;;;;;;;10.52;3.92;;;;;;;27.23;60.66;99715.12;4288648;33;20116;-81
2023/05/29 08:03:18;;;;;;;6.30;3.62;;;;;;;27.35;60.67;99715.69;4289743;33;20446;-80
2023/05/29 08:05:43;;;;;;;10.82;3.80;;;;;;;27.56;60.67;99709.97;4275845;33;36067;-80
2023/05/29 08:08:09;;;;;;;11.65;3.97;;;;;;;27.74;60.69;99716.94;4288406;33;20136;-81
2023/05/29 08:10:34;;;;;;;7.37;3.40;;;;;;;27.79;60.68;99711.94;4288027;33;20113;-82
2023/05/29 08:12:59;;;;;;;9.43;3.50;;;;;;;28.02;60.70;99716.72;4289678;33;20112;-81
2023/05/29 08:15:26;;;;;;;9.55;3.62;;;;;;;28.22;60.71;99709.28;4276463;33;20108;-81
2023/05/29 08:17:51;;;;;;;7.15;3.83;;;;;;;28.29;60.72;99703.13;4288140;33;20779;-79
2023/05/29 08:20:17;;;;;;;5.72;3.50;;;;;;;28.39;60.72;99702.97;4288204;33;20125;-80
2023/05/29 08:22:42;;;;;;;12.77;3.72;;;;;;;28.37;60.72;99705.81;4288460;33;20586;-80
2023/05/29 08:25:08;;;;;;;6.40;3.80;;;;;;;28.50;60.72;99704.50;4291138;33;20124;-80
2023/05/29 08:27:33;;;;;;;9.45;3.50;;;;;;;28.55;60.73;99715.56;4289965;33;20128;-79
2023/05/29 08:29:59;;;;;;;9.02;3.58;;;;;;;28.53;60.73;99710.38;4277648;33;20120;-80
2023/05/29 08:32:24;;;;;;;10.55;3.30;;;;;;;28.34;60.72;99711.50;4289860;33;20503;-80
2023/05/29 08:34:50;;;;;;;13.80;4.10;;;;;;;28.47;60.73;99712.88;4291046;33;20130;-78
2023/05/29 08:37:16;;;;;;;7.85;3.47;;;;;;;28.49;60.73;99702.84;4291068;33;20123;-80
2023/05/29 08:39:41;;;;;;;6.28;3.33;;;;;;;28.37;60.71;99707.66;4289512;33;20164;-79
2023/05/29 08:42:25;;;;;;;9.27;4.10;;;;;;;28.46;60.73;99706.69;4288936;33;35700;-80
2023/05/29 08:44:50;;;;;;;9.50;3.75;;;;;;;28.44;60.73;99708.69;4277969;33;20132;-80
2023/05/29 08:47:20;;;;;;;6.70;3.55;;;;;;;28.29;60.72;99707.66;4277451;33;20093;-79
2023/05/29 08:49:45;;;;;;;11.25;4.30;;;;;;;28.05;60.72;99705.69;4291012;33;20115;-79
2023/05/29 08:52:16;;;;;;;9.77;3.78;;;;;;;28.12;60.71;99702.19;4277717;33;20113;-80
2023/05/29 08:54:41;;;;;;;10.40;3.92;;;;;;;28.13;60.72;99701.19;4289748;33;20131;-81
2023/05/29 08:57:06;;;;;;;10.40;3.83;;;;;;;28.00;60.70;99702.69;4289744;33;20085;-80
2023/05/29 08:59:32;;;;;;;9.00;3.65;;;;;;;27.96;60.70;99704.00;4289064;33;26535;-80
2023/05/29 09:01:57;;;;;;;8.63;3.50;;;;;;;28.08;60.71;99706.22;4276911;33;36795;-80
2023/05/29 09:04:23;;;;;;;6.97;3.60;;;;;;;28.30;60.72;99698.59;4289314;33;20120;-81
2023/05/29 09:06:48;;;;;;;9.07;3.65;;;;;;;28.29;60.72;99700.44;4289573;33;20132;-79
2023/05/29 09:09:14;;;;;;;6.45;3.67;;;;;;;28.41;60.72;99696.47;4277749;33;20184;-80
2023/05/29 09:11:39;;;;;;;10.50;4.90;;;;;;;28.08;60.70;99700.03;4277228;33;20168;-80
2023/05/29 09:14:05;;;;;;;6.85;3.60;;;;;;;28.07;60.71;99707.22;4277480;33;20125;-81
2023/05/29 09:16:30;;;;;;;4.80;3.40;;;;;;;28.11;60.71;99705.88;4289241;33;20112;-81
2023/05/29 09:19:08;;;;;;;10.27;4.25;;;;;;;28.22;60.72;99707.44;4290556;33;20400;-81
2023/05/29 09:21:34;;;;;;;6.93;3.70;;;;;;;28.55;60.73;99705.69;4277886;33;20105;-81
2023/05/29 09:24:04;;;;;;;9.63;3.80;;;;;;;28.80;60.74;99703.84;4289483;33;20149;-81
2023/05/29 09:26:29;;;;;;;7.15;3.70;;;;;;;28.88;60.75;99697.72;4290792;33;20108;-81
2023/05/29 09:28:55;;;;;;;10.30;3.37;;;;;;;29.07;60.75;99696.50;4276914;33;20168;-79
2023/05/29 09:31:21;;;;;;;6.53;3.90;;;;;;;29.08;60.75;99692.81;4288932;33;20162;-79
2023/05/29 09:33:50;;;;;;;11.15;4.00;;;;;;;29.31;60.76;99696.47;4288559;33;20442;-80
2023/05/29 09:36:22;;;;;;;11.73;5.47;;;;;;;29.42;60.78;99704.19;4277817;33;20096;-79
2023/05/29 09:38:47;;;;;;;6.57;4.47;;;;;;;29.56;60.79;99697.28;4289453;33;20096;-81
2023/05/29 09:41:13;;;;;;;7.10;4.12;;;;;;;29.76;60.79;99703.09;4290735;33;20096;-81
2023/05/29 09:43:39;;;;;;;6.95;3.50;;;;;;;29.78;60.79;99695.69;4277080;33;20131;-80
2023/05/29 09:46:06;;;;;;;8.07;3.72;;;;;;;30.12;60.81;99700.78;4289361;33;20463;-80
2023/05/29 09:48:31;;;;;;;11.40;4.57;;;;;;;30.25;60.81;99696.50;4289136;33;20101;-80
2023/05/29 09:50:57;;;;;;;7.57;3.90;;;;;;;30.25;60.81;99701.88;4276789;33;20138;-79
2023/05/29 09:53:24;;;;;;;7.25;3.55;;;;;;;30.33;60.81;99694.81;4277680;33;20113;-80
2023/05/29 09:55:54;;;;;;;7.65;4.00;;;;;;;30.31;60.82;99700.34;4277276;33;20131;-81
2023/05/29 09:58:22;;;;;;;10.70;3.85;;;;;;;30.41;60.82;99700.94;4276886;33;20128;-79
2023/05/29 10:00:49;;;;;;;16.12;3.70;;;;;;;30.48;60.83;99703.75;4288581;33;20172;-78
2023/05/29 10:03:15;;;;;;;6.43;3.67;;;;;;;30.50;60.83;99701.72;4289292;33;20120;-80
2023/05/29 10:05:41;;;;;;;6.90;3.90;;;;;;;30.47;60.83;99700.22;4289211;33;20112;-80
2023/05/29 10:08:15;;;;;;;8.95;3.75;;;;;;;30.63;60.83;99702.00;4288778;33;20164;-80
2023/05/29 10:10:43;;;;;;;10.40;4.07;;;;;;;30.89;60.84;99698.09;4276943;33;20512;-80
2023/05/29 10:13:12;;;;;;;9.73;3.45;;;;;;;30.90;60.84;99707.84;4289406;33;20096;-80
2023/05/29 10:15:37;;;;;;;7.80;4.75;;;;;;;31.05;60.85;99701.50;4289000;33;20088;-79
2023/05/29 10:18:07;;;;;;;6.35;3.72;;;;;;;30.94;60.85;99704.59;4287844;33;35940;-80
2023/05/29 10:20:33;;;;;;;8.38;4.12;;;;;;;31.05;60.85;99701.50;4288762;33;20242;-80
2023/05/29 10:23:00;;;;;;;7.05;4.00;;;;;;;31.15;60.85;99701.22;4277250;33;20116;-80
2023/05/29 10:25:25;;;;;;;6.87;3.90;;;;;;;31.07;60.86;99707.53;4289216;33;20155;-81
2023/05/29 10:27:51;;;;;;;7.05;3.80;;;;;;;30.93;60.85;99708.31;4276657;33;20128;-81
2023/05/29 10:30:25;;;;;;;7.68;3.80;;;;;;;30.82;60.84;99706.91;4276969;33;20184;-80
2023/05/29 10:33:17;;;;;;;4.95;3.67;;;;;;;30.81;60.84;99705.22;4290018;33;20105;-80
2023/05/29 10:35:46;;;;;;;7.65;3.35;;;;;;;30.74;60.84;99709.63;4289314;33;20436;-82
2023/05/29 10:38:13;;;;;;;7.85;3.92;;;;;;;30.63;60.83;99709.22;4264513;33;20444;-82
2023/05/29 10:40:39;;;;;;;6.00;4.28;;;;;;;30.62;60.83;99707.56;4277292;33;20100;-81
2023/05/29 10:43:08;;;;;;;8.23;3.33;;;;;;;30.82;60.84;99700.69;4276709;33;24106;-82
2023/05/29 10:45:40;;;;;;;10.75;4.00;;;;;;;30.81;60.84;99699.84;4277722;33;20122;-81
2023/05/29 10:48:11;;;;;;;4.57;3.20;;;;;;;30.98;60.85;99692.47;4290391;33;20138;-81
2023/05/29 10:50:46;;;;;;;5.22;3.65;;;;;;;30.92;60.85;99697.75;4290316;33;20097;-81
2023/05/29 10:53:16;;;;;;;6.15;3.70;;;;;;;30.84;60.85;99696.81;4277362;33;20159;-80
2023/05/29 10:55:42;;;;;;;5.47;3.15;;;;;;;30.83;60.85;99695.13;4289033;33;20114;-81
2023/05/29 10:58:10;;;;;;;8.65;3.78;;;;;;;30.94;60.85;99684.94;4288583;33;20104;-80
2023/05/29 11:00:42;;;;;;;6.07;3.55;;;;;;;30.97;60.85;99687.28;4276757;33;20109;-80
2023/05/29 11:03:10;;;;;;;6.25;3.50;;;;;;;31.00;60.85;99690.47;4276980;33;20116;-80
2023/05/29 11:05:59;;;;;;;7.53;3.78;;;;;;;31.09;60.86;99688.53;4287836;33;33857;-80
2023/05/29 11:08:37;;;;;;;7.28;3.85;;;;;;;31.11;60.86;99689.16;4288982;33;20103;-80
2023/05/29 11:11:03;;;;;;;5.72;3.72;;;;;;;31.10;60.86;99684.81;4289005;33;20101;-80
2023/05/29 11:13:36;;;;;;;7.22;3.72;;;;;;;31.02;60.85;99687.59;4276961;33;20104;-80
2023/05/29 11:16:04;;;;;;;7.68;3.67;;;;;;;30.95;60.85;99689.31;4277120;33;20089;-80
2023/05/29 11:18:29;;;;;;;8.32;3.87;;;;;;;30.89;60.85;99685.50;4290457;33;20160;-81
2023/05/29 11:20:57;;;;;;;11.23;3.83;;;;;;;30.84;60.85;99695.97;4288222;33;20149;-81
2023/05/29 11:23:23;;;;;;;6.32;4.20;;;;;;;30.77;60.85;99693.19;4289165;33;20133;-82
2023/05/29 11:25:48;;;;;;;8.90;4.32;;;;;;;30.65;60.84;99691.09;4276637;33;20097;-82
2023/05/29 11:28:13;;;;;;;6.93;3.87;;;;;;;30.50;60.83;99690.97;4276445;33;36717;-79